Time;durP1;ratioP1;P1;durP2;ratioP2;P2;SDS_P1;SDS_P2;PMS_P1;PMS_P2;Temp;Humidity;BMP_temperature;BMP_pressure;BME280_temperature;BME280_humidity;BME280_pressure;Samples;Min_cycle;Max_cycle;Signal;HPM_P1;HPM_P2
2023/09/18 00:00:13;;;;;;;81.23;75.87;;;;;;;;;;5018749;28;20036;-58
2023/09/18 00:02:39;;;;;;;141.20;132.15;;;;;;;;;;5020288;28;20455;-58
2023/09/18 00:05:04;;;;;;;138.35;129.85;;;;;;;;;;5013566;28;20053;-57
2023/09/18 00:07:29;;;;;;;196.60;183.20;;;;;;;;;;5022278;28;20540;-57
2023/09/18 00:09:55;;;;;;;144.37;134.80;;;;;;;;;;5020878;28;20649;-57
2023/09/18 00:12:20;;;;;;;110.17;103.07;;;;;;;;;;5024911;28;20006;-58
2023/09/18 00:14:47;;;;;;;99.43;92.35;;;;;;;;;;5021957;28;20063;-57
2023/09/18 00:17:13;;;;;;;130.18;121.15;;;;;;;;;;5013667;28;20485;-58
2023/09/18 00:19:38;;;;;;;81.22;76.07;;;;;;;;;;5018723;28;20049;-56
2023/09/18 00:22:03;;;;;;;152.97;142.07;;;;;;;;;;5015945;28;20079;-57
2023/09/18 00:24:28;;;;;;;155.03;144.63;;;;;;;;;;5028779;28;20032;-57
2023/09/18 00:26:54;;;;;;;124.27;115.77;;;;;;;;;;5011311;28;20186;-58
2023/09/18 00:29:19;;;;;;;101.97;95.57;;;;;;;;;;5020013;28;20017;-58
2023/09/18 00:31:44;;;;;;;81.88;77.10;;;;;;;;;;5033143;28;20469;-57
2023/09/18 00:34:09;;;;;;;93.50;86.90;;;;;;;;;;5039157;28;20041;-57
2023/09/18 00:36:36;;;;;;;114.10;107.38;;;;;;;;;;5022161;28;20401;-57
2023/09/18 00:39:01;;;;;;;134.00;125.88;;;;;;;;;;5022816;28;20393;-57
2023/09/18 00:41:27;;;;;;;85.45;80.47;;;;;;;;;;5014574;28;20014;-57
2023/09/18 00:43:52;;;;;;;124.33;116.57;;;;;;;;;;5019237;28;20034;-58
2023/09/18 00:46:17;;;;;;;104.78;98.63;;;;;;;;;;5032736;28;20029;-58
2023/09/18 00:48:43;;;;;;;91.53;85.93;;;;;;;;;;5027826;28;20024;-58
2023/09/18 00:51:08;;;;;;;117.63;110.70;;;;;;;;;;5016905;28;20366;-57
2023/09/18 00:53:34;;;;;;;102.45;96.20;;;;;;;;;;5013912;28;20053;-58
2023/09/18 00:56:00;;;;;;;96.13;90.43;;;;;;;;;;5013857;28;20045;-58
2023/09/18 00:58:25;;;;;;;107.68;100.93;;;;;;;;;;5014409;28;20025;-57
2023/09/18 01:00:51;;;;;;;109.60;102.25;;;;;;;;;;5024426;28;20489;-57
2023/09/18 01:03:18;;;;;;;112.53;105.85;;;;;;;;;;5021981;28;20494;-58
2023/09/18 01:05:44;;;;;;;108.35;101.25;;;;;;;;;;5020062;28;20033;-56
2023/09/18 01:08:09;;;;;;;201.55;186.85;;;;;;;;;;5013581;28;20013;-58
2023/09/18 01:10:48;;;;;;;99.80;93.88;;;;;;;;;;5013457;28;20013;-58
2023/09/18 01:13:16;;;;;;;87.13;81.78;;;;;;;;;;5013717;28;20018;-58
2023/09/18 01:16:01;;;;;;;91.80;85.80;;;;;;;;;;5013201;28;20501;-57
2023/09/18 01:18:26;;;;;;;155.13;145.18;;;;;;;;;;5018241;28;20113;-58
2023/09/18 01:20:51;;;;;;;136.00;127.57;;;;;;;;;;5020052;28;20164;-58
2023/09/18 01:23:16;;;;;;;129.27;120.47;;;;;;;;;;5013478;28;20093;-57
2023/09/18 01:25:42;;;;;;;72.30;67.87;;;;;;;;;;5013400;28;20071;-58
2023/09/18 01:28:07;;;;;;;130.57;122.65;;;;;;;;;;5022201;28;20380;-58
2023/09/18 01:30:34;;;;;;;93.93;87.97;;;;;;;;;;5029294;28;20075;-57
2023/09/18 01:33:01;;;;;;;88.97;83.93;;;;;;;;;;5017652;28;20504;-57
2023/09/18 01:35:29;;;;;;;78.57;73.95;;;;;;;;;;5021938;28;20030;-57
2023/09/18 01:37:59;;;;;;;205.73;192.50;;;;;;;;;;5015561;28;20053;-58
2023/09/18 01:40:24;;;;;;;178.50;166.55;;;;;;;;;;5011835;28;20539;-58
2023/09/18 01:42:49;;;;;;;100.10;93.53;;;;;;;;;;5012987;28;20022;-58
2023/09/18 01:45:14;;;;;;;71.87;67.47;;;;;;;;;;5012941;28;20068;-58
2023/09/18 01:47:40;;;;;;;187.43;175.47;;;;;;;;;;5013358;28;20026;-58
2023/09/18 01:50:05;;;;;;;84.43;79.33;;;;;;;;;;5023058;28;20396;-58
2023/09/18 01:52:31;;;;;;;159.93;149.73;;;;;;;;;;5016961;28;20109;-58
2023/09/18 01:54:56;;;;;;;168.23;155.77;;;;;;;;;;5019933;28;20021;-57
2023/09/18 01:57:21;;;;;;;152.97;143.27;;;;;;;;;;5019264;28;20060;-58
2023/09/18 01:59:46;;;;;;;118.07;110.10;;;;;;;;;;5020192;28;20527;-57
2023/09/18 02:02:12;;;;;;;173.50;162.03;;;;;;;;;;5018563;28;20026;-58
2023/09/18 02:04:37;;;;;;;162.13;151.80;;;;;;;;;;5013115;28;20035;-58
2023/09/18 02:07:02;;;;;;;107.20;100.47;;;;;;;;;;5012534;28;20477;-57
2023/09/18 02:09:27;;;;;;;124.40;115.80;;;;;;;;;;5021832;28;20029;-57
2023/09/18 02:11:52;;;;;;;118.47;111.07;;;;;;;;;;5019971;28;20014;-58
2023/09/18 02:14:18;;;;;;;121.43;112.93;;;;;;;;;;5012407;28;20017;-58
2023/09/18 02:16:43;;;;;;;118.17;110.50;;;;;;;;;;5012397;28;20844;-57
2023/09/18 02:19:09;;;;;;;297.65;275.08;;;;;;;;;;5019518;28;20022;-57
2023/09/18 02:21:34;;;;;;;113.00;106.00;;;;;;;;;;5020019;28;20460;-58
2023/09/18 02:24:00;;;;;;;131.07;122.88;;;;;;;;;;5012300;28;20021;-58
2023/09/18 02:26:25;;;;;;;193.57;180.45;;;;;;;;;;5018957;28;20096;-57
2023/09/18 02:28:54;;;;;;;93.75;87.70;;;;;;;;;;5016879;28;20080;-58
2023/09/18 02:31:20;;;;;;;252.88;234.48;;;;;;;;;;5011787;28;20021;-58
2023/09/18 02:33:46;;;;;;;128.18;118.40;;;;;;;;;;5020054;28;20492;-58
2023/09/18 02:36:11;;;;;;;157.18;146.70;;;;;;;;;;5026643;28;20085;-59
2023/09/18 02:38:36;;;;;;;104.27;98.23;;;;;;;;;;5024811;28;20053;-57
2023/09/18 02:41:02;;;;;;;155.03;144.63;;;;;;;;;;5020323;28;20429;-57
2023/09/18 02:43:27;;;;;;;190.13;176.73;;;;;;;;;;5023580;28;20053;-58
2023/09/18 02:45:52;;;;;;;110.00;102.93;;;;;;;;;;5019956;28;20037;-58
2023/09/18 02:48:18;;;;;;;119.72;111.43;;;;;;;;;;5020578;28;20021;-58
2023/09/18 02:50:43;;;;;;;109.13;102.45;;;;;;;;;;5013497;28;20024;-57
2023/09/18 02:53:16;;;;;;;129.20;121.17;;;;;;;;;;5030655;28;20092;-58
2023/09/18 02:55:41;;;;;;;122.90;115.60;;;;;;;;;;5019754;28;20030;-57
2023/09/18 02:58:06;;;;;;;137.40;126.10;;;;;;;;;;5017319;28;20600;-57
2023/09/18 03:00:31;;;;;;;109.90;103.15;;;;;;;;;;5019575;28;20038;-58
2023/09/18 03:02:57;;;;;;;166.83;154.93;;;;;;;;;;5029389;28;20051;-58
2023/09/18 03:05:22;;;;;;;173.33;162.30;;;;;;;;;;5029549;28;20584;-58
2023/09/18 03:07:47;;;;;;;176.00;164.20;;;;;;;;;;5013141;28;20029;-58
2023/09/18 03:10:15;;;;;;;128.48;120.10;;;;;;;;;;5022479;28;20048;-58
2023/09/18 03:12:40;;;;;;;150.18;140.88;;;;;;;;;;5024038;28;20056;-58
2023/09/18 03:15:06;;;;;;;141.33;131.37;;;;;;;;;;5026021;28;20041;-58
2023/09/18 03:17:31;;;;;;;129.32;121.05;;;;;;;;;;5011868;28;20025;-58
2023/09/18 03:19:56;;;;;;;252.97;234.80;;;;;;;;;;5019438;28;20576;-58
2023/09/18 03:22:22;;;;;;;175.02;162.48;;;;;;;;;;5026670;28;20429;-58
2023/09/18 03:24:47;;;;;;;159.70;148.90;;;;;;;;;;5014527;28;20033;-58
2023/09/18 03:27:12;;;;;;;128.73;120.20;;;;;;;;;;5010602;28;20022;-58
2023/09/18 03:29:37;;;;;;;100.33;94.03;;;;;;;;;;5009141;28;20382;-58
2023/09/18 03:32:02;;;;;;;207.97;192.43;;;;;;;;;;5016394;28;20033;-58
2023/09/18 03:34:28;;;;;;;196.48;183.50;;;;;;;;;;5013659;28;20551;-59
2023/09/18 03:36:53;;;;;;;78.27;73.47;;;;;;;;;;5012360;28;20071;-59
2023/09/18 03:39:18;;;;;;;161.68;150.35;;;;;;;;;;5022977;28;20013;-57
2023/09/18 03:41:44;;;;;;;248.40;230.03;;;;;;;;;;5027296;28;20025;-57
2023/09/18 03:44:10;;;;;;;166.23;155.50;;;;;;;;;;5010820;28;20060;-58
2023/09/18 03:46:35;;;;;;;144.93;135.32;;;;;;;;;;5012128;28;20018;-58
2023/09/18 03:49:00;;;;;;;144.05;134.55;;;;;;;;;;5010904;28;20032;-58
2023/09/18 03:51:26;;;;;;;157.00;144.40;;;;;;;;;;5014499;28;20090;-58
2023/09/18 03:53:51;;;;;;;175.83;164.17;;;;;;;;;;5017233;28;20037;-58
2023/09/18 03:56:16;;;;;;;158.90;148.37;;;;;;;;;;5020558;28;20385;-57
2023/09/18 03:58:41;;;;;;;162.95;152.77;;;;;;;;;;5013398;28;20032;-58
2023/09/18 04:01:07;;;;;;;101.23;95.10;;;;;;;;;;5012857;28;20018;-58
2023/09/18 04:03:32;;;;;;;211.77;198.18;;;;;;;;;;5010244;28;20378;-58
2023/09/18 04:05:57;;;;;;;126.87;118.17;;;;;;;;;;5021194;28;20366;-57
2023/09/18 04:08:22;;;;;;;224.17;208.27;;;;;;;;;;5010882;28;20034;-57
2023/09/18 04:10:48;;;;;;;103.78;97.03;;;;;;;;;;5025649;28;20036;-58
2023/09/18 04:13:13;;;;;;;139.50;130.52;;;;;;;;;;5026232;28;20093;-58
2023/09/18 04:15:38;;;;;;;187.83;176.37;;;;;;;;;;5028958;28;20457;-58
2023/09/18 04:18:05;;;;;;;135.43;126.60;;;;;;;;;;5021918;28;20447;-58
2023/09/18 04:20:30;;;;;;;;;;;;;;;;;;5019910;28;20032;-58
2023/09/18 04:23:14;;;;;;;68.90;64.35;;;;;;;;;;5016309;28;19913;-58
2023/09/18 04:25:39;;;;;;;168.48;157.55;;;;;;;;;;5025733;28;20097;-58
2023/09/18 04:28:04;;;;;;;114.53;107.50;;;;;;;;;;5026552;28;20112;-59
2023/09/18 04:30:29;;;;;;;118.60;110.77;;;;;;;;;;5013421;28;20083;-57
2023/09/18 04:32:54;;;;;;;107.07;100.37;;;;;;;;;;5020473;28;20022;-57
2023/09/18 04:35:20;;;;;;;104.93;98.17;;;;;;;;;;5014212;28;20024;-58
2023/09/18 04:37:45;;;;;;;114.53;106.72;;;;;;;;;;5020080;28;20022;-57
2023/09/18 04:40:11;;;;;;;154.93;144.23;;;;;;;;;;5009376;28;20034;-57
2023/09/18 04:42:36;;;;;;;182.20;169.77;;;;;;;;;;5018327;28;20036;-57
2023/09/18 04:45:02;;;;;;;159.23;148.05;;;;;;;;;;5021170;28;20014;-58
2023/09/18 04:47:27;;;;;;;139.20;128.48;;;;;;;;;;5010504;28;20022;-58
2023/09/18 04:49:52;;;;;;;97.23;91.10;;;;;;;;;;5008604;28;20014;-57
2023/09/18 04:52:18;;;;;;;134.00;125.17;;;;;;;;;;5021947;28;20429;-57
2023/09/18 04:54:43;;;;;;;186.77;173.47;;;;;;;;;;5006769;28;20473;-57
2023/09/18 04:57:08;;;;;;;171.07;159.40;;;;;;;;;;5006506;28;20535;-57
2023/09/18 04:59:34;;;;;;;124.93;116.75;;;;;;;;;;5017370;28;20039;-57
2023/09/18 05:01:59;;;;;;;90.25;84.88;;;;;;;;;;5023785;28;20083;-57
2023/09/18 05:04:24;;;;;;;215.48;201.43;;;;;;;;;;5034693;28;20402;-57
2023/09/18 05:06:49;;;;;;;66.73;62.77;;;;;;;;;;5014082;28;20109;-56
2023/09/18 05:09:15;;;;;;;125.35;117.53;;;;;;;;;;5018818;28;20473;-58
2023/09/18 05:11:41;;;;;;;178.60;164.47;;;;;;;;;;5008299;28;20025;-57
2023/09/18 05:14:06;;;;;;;116.15;108.80;;;;;;;;;;5036883;28;20511;-56
2023/09/18 05:16:32;;;;;;;90.10;84.40;;;;;;;;;;5020399;28;20059;-58
2023/09/18 05:18:57;;;;;;;159.50;148.60;;;;;;;;;;5017372;28;20041;-57
2023/09/18 05:21:24;;;;;;;157.63;145.63;;;;;;;;;;5013714;28;20474;-57
2023/09/18 05:23:49;;;;;;;245.65;227.27;;;;;;;;;;5021454;28;20038;-58
2023/09/18 05:26:16;;;;;;;201.57;185.03;;;;;;;;;;5016103;28;20404;-58
2023/09/18 05:28:42;;;;;;;176.38;164.85;;;;;;;;;;5032850;28;20529;-58
2023/09/18 05:31:07;;;;;;;110.13;103.40;;;;;;;;;;5032157;28;20044;-58
2023/09/18 05:33:32;;;;;;;237.70;220.73;;;;;;;;;;5033568;28;20469;-59
2023/09/18 05:35:57;;;;;;;110.75;103.70;;;;;;;;;;5029120;28;20021;-59
2023/09/18 05:38:23;;;;;;;177.48;164.98;;;;;;;;;;5016747;28;20460;-58
2023/09/18 05:40:48;;;;;;;223.63;205.50;;;;;;;;;;5018293;28;20021;-58
2023/09/18 05:43:14;;;;;;;177.60;165.20;;;;;;;;;;5019642;28;20510;-59
2023/09/18 05:45:40;;;;;;;163.48;151.18;;;;;;;;;;5028583;28;20072;-59
2023/09/18 05:48:05;;;;;;;200.38;185.55;;;;;;;;;;5025359;28;20046;-59
2023/09/18 05:50:31;;;;;;;176.73;163.90;;;;;;;;;;5024068;28;20032;-58
2023/09/18 05:53:00;;;;;;;;;;;;;;;;;;5025702;28;20026;-59
2023/09/18 05:55:26;;;;;;;290.25;269.42;;;;;;;;;;5034505;28;20297;-58
2023/09/18 05:57:51;;;;;;;121.85;112.30;;;;;;;;;;5025571;28;20045;-59
2023/09/18 06:00:17;;;;;;;206.40;190.23;;;;;;;;;;5012363;28;20457;-58
2023/09/18 06:02:43;;;;;;;240.88;220.40;;;;;;;;;;5014376;28;20398;-58
2023/09/18 06:05:11;;;;;;;133.35;124.03;;;;;;;;;;5021391;28;20030;-59
2023/09/18 06:07:36;;;;;;;171.32;159.82;;;;;;;;;;5030029;28;20037;-58
2023/09/18 06:10:01;;;;;;;118.53;110.00;;;;;;;;;;5030492;28;20385;-58
2023/09/18 06:12:26;;;;;;;157.48;146.02;;;;;;;;;;5024770;28;20072;-57
2023/09/18 06:14:52;;;;;;;194.63;181.17;;;;;;;;;;5012464;28;20062;-59
2023/09/18 06:17:17;;;;;;;134.47;125.07;;;;;;;;;;5022538;28;20022;-58
2023/09/18 06:19:42;;;;;;;164.75;153.07;;;;;;;;;;5021938;28;20049;-59
2023/09/18 06:22:08;;;;;;;175.38;161.77;;;;;;;;;;5023475;28;20108;-58
2023/09/18 06:24:33;;;;;;;137.55;128.20;;;;;;;;;;5032911;28;20425;-58
2023/09/18 06:26:59;;;;;;;169.55;156.45;;;;;;;;;;5032600;28;20022;-58
2023/09/18 06:29:24;;;;;;;234.50;209.77;;;;;;;;;;5028464;28;20083;-58
2023/09/18 06:31:49;;;;;;;159.47;147.90;;;;;;;;;;5023393;28;20112;-57
2023/09/18 06:34:14;;;;;;;178.70;164.07;;;;;;;;;;5018357;28;20018;-57
2023/09/18 06:36:40;;;;;;;191.43;176.70;;;;;;;;;;5025580;28;21003;-58
2023/09/18 06:39:05;;;;;;;237.98;219.70;;;;;;;;;;5012189;28;20013;-57
2023/09/18 06:41:30;;;;;;;269.38;239.55;;;;;;;;;;5034368;28;20431;-57
2023/09/18 06:43:57;;;;;;;187.23;169.10;;;;;;;;;;5027149;28;20029;-56
2023/09/18 06:46:22;;;;;;;249.98;230.25;;;;;;;;;;5011888;28;20432;-57
2023/09/18 06:48:47;;;;;;;124.70;115.27;;;;;;;;;;5016729;28;20104;-58
2023/09/18 06:51:13;;;;;;;184.77;170.75;;;;;;;;;;5022214;28;20014;-58
2023/09/18 06:53:38;;;;;;;205.27;190.27;;;;;;;;;;5015816;28;20022;-57
2023/09/18 06:56:03;;;;;;;329.27;295.27;;;;;;;;;;5017671;28;20041;-58
2023/09/18 06:58:28;;;;;;;266.30;245.38;;;;;;;;;;5037263;28;20028;-58
2023/09/18 07:00:54;;;;;;;466.20;334.43;;;;;;;;;;5026018;28;20018;-58
2023/09/18 07:03:19;;;;;;;160.30;148.67;;;;;;;;;;5020083;28;20473;-59
2023/09/18 07:05:45;;;;;;;231.60;209.70;;;;;;;;;;5012902;28;20022;-58
2023/09/18 07:08:12;;;;;;;280.02;244.27;;;;;;;;;;5022122;28;20009;-59
2023/09/18 07:10:38;;;;;;;228.23;209.65;;;;;;;;;;5028527;28;20037;-58
2023/09/18 07:13:03;;;;;;;226.27;205.75;;;;;;;;;;5039361;28;20094;-58
2023/09/18 07:15:29;;;;;;;219.73;201.07;;;;;;;;;;5023265;28;20616;-59
2023/09/18 07:17:54;;;;;;;215.93;200.27;;;;;;;;;;5023805;28;20028;-58
2023/09/18 07:20:19;;;;;;;162.88;150.30;;;;;;;;;;5018633;28;20021;-58
2023/09/18 07:22:46;;;;;;;164.03;150.47;;;;;;;;;;5022975;28;20025;-58
2023/09/18 07:25:11;;;;;;;222.95;206.68;;;;;;;;;;5025234;28;20091;-59
2023/09/18 07:27:38;;;;;;;157.00;143.97;;;;;;;;;;5046302;28;20048;-58
2023/09/18 07:30:04;;;;;;;185.20;169.50;;;;;;;;;;5030966;28;20033;-58
2023/09/18 07:32:29;;;;;;;207.80;192.15;;;;;;;;;;5034562;28;20396;-58
2023/09/18 07:34:54;;;;;;;241.53;220.00;;;;;;;;;;5051242;28;20017;-58
2023/09/18 07:37:20;;;;;;;222.40;206.40;;;;;;;;;;5026484;28;20024;-57
2023/09/18 07:39:46;;;;;;;169.65;156.45;;;;;;;;;;5029034;28;20024;-58
2023/09/18 07:42:11;;;;;;;273.05;247.60;;;;;;;;;;5050731;28;20021;-58
2023/09/18 07:44:36;;;;;;;238.83;217.23;;;;;;;;;;5050752;28;20021;-57
2023/09/18 07:47:01;;;;;;;304.93;280.43;;;;;;;;;;5024384;28;20517;-59
2023/09/18 07:49:26;;;;;;;242.80;223.87;;;;;;;;;;5017119;28;20029;-59
2023/09/18 07:51:52;;;;;;;202.10;185.37;;;;;;;;;;5017680;28;20033;-59
2023/09/18 07:54:17;;;;;;;320.38;289.65;;;;;;;;;;5020536;28;20072;-57
2023/09/18 07:56:43;;;;;;;315.07;283.43;;;;;;;;;;5028298;28;20052;-58
2023/09/18 07:59:10;;;;;;;223.10;205.95;;;;;;;;;;5029857;28;20020;-58
2023/09/18 08:01:35;;;;;;;239.77;221.38;;;;;;;;;;5026350;28;20099;-59
2023/09/18 08:04:00;;;;;;;270.47;245.73;;;;;;;;;;5020516;28;20478;-59
2023/09/18 08:06:26;;;;;;;226.13;207.18;;;;;;;;;;5027228;28;20029;-57
2023/09/18 08:08:51;;;;;;;264.40;241.07;;;;;;;;;;5029261;28;20025;-58
2023/09/18 08:11:16;;;;;;;258.33;233.68;;;;;;;;;;5030657;28;20551;-58
2023/09/18 08:13:41;;;;;;;254.27;235.50;;;;;;;;;;5030219;28;20072;-59
2023/09/18 08:16:07;;;;;;;185.40;171.67;;;;;;;;;;5030219;28;20524;-57
2023/09/18 08:18:32;;;;;;;310.77;286.85;;;;;;;;;;5028971;28;20112;-58
2023/09/18 08:20:58;;;;;;;223.50;206.47;;;;;;;;;;5021871;28;20461;-58
2023/09/18 08:23:23;;;;;;;186.93;172.48;;;;;;;;;;5021192;28;20021;-58
2023/09/18 08:25:51;;;;;;;263.00;242.38;;;;;;;;;;5038101;28;20017;-58
2023/09/18 08:28:16;;;;;;;260.67;239.05;;;;;;;;;;5050165;28;20051;-58
2023/09/18 08:30:44;;;;;;;;;;;;;;;;;;5041857;28;20049;-58
2023/09/18 08:33:09;;;;;;;314.98;283.95;;;;;;;;;;5010605;28;19906;-57
2023/09/18 08:35:34;;;;;;;;;;;;;;;;;;5019597;28;20441;-59
2023/09/18 08:38:00;;;;;;;283.58;258.98;;;;;;;;;;5017726;28;19996;-59
2023/09/18 08:40:25;;;;;;;312.63;289.13;;;;;;;;;;5034648;28;20020;-58
2023/09/18 08:42:53;;;;;;;261.95;239.73;;;;;;;;;;5049761;28;20406;-58
2023/09/18 08:45:33;;;;;;;335.08;300.80;;;;;;;;;;5050129;28;20021;-58
2023/09/18 08:47:58;;;;;;;287.05;266.30;;;;;;;;;;5040365;28;20060;-58
2023/09/18 08:50:25;;;;;;;267.73;246.95;;;;;;;;;;5036728;28;20053;-57
2023/09/18 08:52:50;;;;;;;318.13;293.17;;;;;;;;;;5017032;28;20105;-57
2023/09/18 08:55:16;;;;;;;349.20;316.07;;;;;;;;;;5037478;28;20108;-58
2023/09/18 08:57:41;;;;;;;;;;;;;;;;;;5055433;28;20021;-58
2023/09/18 09:00:07;;;;;;;423.08;378.45;;;;;;;;;;5035721;28;19908;-58
2023/09/18 09:02:33;;;;;;;355.65;302.63;;;;;;;;;;5034775;28;20075;-59
2023/09/18 09:04:58;;;;;;;337.05;305.95;;;;;;;;;;5032605;28;20021;-58
2023/09/18 09:07:24;;;;;;;;;;;;;;;;;;5025439;28;20746;-59
2023/09/18 09:09:49;;;;;;;312.08;286.88;;;;;;;;;;5022080;28;20250;-58
2023/09/18 09:12:14;;;;;;;;;;;;;;;;;;5037959;28;20096;-58
2023/09/18 09:14:41;;;;;;;379.08;348.42;;;;;;;;;;5053558;28;20011;-59
2023/09/18 09:17:07;;;;;;;405.17;362.00;;;;;;;;;;5053747;28;20028;-57
2023/09/18 09:19:35;;;;;;;640.38;458.67;;;;;;;;;;5024794;28;20010;-58
2023/09/18 09:22:00;;;;;;;278.45;254.23;;;;;;;;;;5023463;28;20025;-58
2023/09/18 09:24:42;;;;;;;409.17;373.65;;;;;;;;;;5046687;28;20533;-59
2023/09/18 09:27:08;;;;;;;363.33;331.58;;;;;;;;;;5053632;28;20036;-58
2023/09/18 09:29:34;;;;;;;;;;;;;;;;;;5053641;28;20017;-58
2023/09/18 09:32:18;;;;;;;395.52;364.15;;;;;;;;;;5053389;28;19938;-58
2023/09/18 09:34:44;;;;;;;363.33;332.83;;;;;;;;;;5033213;28;20121;-59
2023/09/18 09:37:09;;;;;;;;;;;;;;;;;;5022579;28;20114;-59
2023/09/18 09:39:34;;;;;;;398.63;364.27;;;;;;;;;;5013494;28;20419;-58
2023/09/18 09:41:59;;;;;;;;;;;;;;;;;;5023387;28;20060;-58
2023/09/18 09:44:25;;;;;;;283.88;261.73;;;;;;;;;;5021797;28;19917;-57
2023/09/18 09:46:51;;;;;;;397.77;366.35;;;;;;;;;;5046149;28;20082;-58
2023/09/18 09:49:16;;;;;;;360.17;329.40;;;;;;;;;;5030708;28;20179;-58
2023/09/18 09:51:42;;;;;;;352.98;317.73;;;;;;;;;;5038029;28;20024;-59
2023/09/18 09:54:07;;;;;;;;;;;;;;;;;;5053176;28;20098;-57
2023/09/18 09:56:44;;;;;;;341.80;312.67;;;;;;;;;;5052883;28;19916;-58
2023/09/18 09:59:11;;;;;;;328.38;298.95;;;;;;;;;;5037215;28;20021;-58
2023/09/18 10:01:36;;;;;;;292.60;269.05;;;;;;;;;;5046829;28;20109;-59
2023/09/18 10:04:07;;;;;;;401.30;368.73;;;;;;;;;;5019446;28;20017;-59
2023/09/18 10:06:33;;;;;;;354.40;324.88;;;;;;;;;;5018702;28;20113;-59
2023/09/18 10:08:58;;;;;;;;;;;;;;;;;;5012895;28;20026;-59
2023/09/18 10:11:25;;;;;;;385.08;350.38;;;;;;;;;;5013121;28;19959;-59
2023/09/18 10:13:55;;;;;;;348.88;322.50;;;;;;;;;;5012706;28;20021;-58
2023/09/18 10:16:25;;;;;;;386.92;355.05;;;;;;;;;;5040282;28;20036;-58
2023/09/18 10:19:06;;;;;;;364.70;334.95;;;;;;;;;;5016703;28;20018;-58
2023/09/18 10:21:50;;;;;;;463.98;423.75;;;;;;;;;;5021027;28;20017;-58
2023/09/18 10:24:25;;;;;;;432.67;388.25;;;;;;;;;;5012969;28;20093;-59
2023/09/18 10:26:55;;;;;;;522.95;415.90;;;;;;;;;;5011459;28;20072;-58
2023/09/18 10:29:20;;;;;;;443.75;405.30;;;;;;;;;;5032457;28;20071;-58
2023/09/18 10:31:45;;;;;;;;;;;;;;;;;;5024841;28;20026;-58
2023/09/18 10:34:12;;;;;;;420.52;387.25;;;;;;;;;;5016673;28;19933;-59
2023/09/18 10:36:39;;;;;;;417.13;381.67;;;;;;;;;;5020388;28;20172;-59
2023/09/18 10:39:08;;;;;;;467.45;417.00;;;;;;;;;;5012094;28;20029;-59
2023/09/18 10:41:33;;;;;;;465.55;425.17;;;;;;;;;;5012544;28;20021;-58
2023/09/18 10:43:58;;;;;;;;;;;;;;;;;;5035277;28;20052;-58
2023/09/18 10:46:25;;;;;;;468.90;418.50;;;;;;;;;;5019368;28;19905;-58
2023/09/18 10:48:51;;;;;;;468.83;428.35;;;;;;;;;;5012195;28;20104;-59
2023/09/18 10:51:16;;;;;;;;;;;;;;;;;;5016386;28;20128;-58
2023/09/18 10:53:41;;;;;;;453.73;414.37;;;;;;;;;;5017201;28;19916;-58
2023/09/18 10:56:06;;;;;;;489.87;437.00;;;;;;;;;;5012100;28;20091;-58
2023/09/18 10:58:35;;;;;;;;;;;;;;;;;;5024694;28;20025;-59
2023/09/18 11:01:01;;;;;;;400.88;364.75;;;;;;;;;;5040995;28;19908;-59
2023/09/18 11:03:26;;;;;;;431.38;395.65;;;;;;;;;;5052024;28;20125;-58
2023/09/18 11:05:52;;;;;;;;;;;;;;;;;;5017857;28;20478;-58
2023/09/18 11:08:24;;;;;;;485.98;441.70;;;;;;;;;;5023307;28;19909;-58
2023/09/18 11:11:16;;;;;;;432.52;393.52;;;;;;;;;;5026625;28;20026;-58
2023/09/18 11:13:45;;;;;;;448.73;409.75;;;;;;;;;;5023823;28;20468;-59
2023/09/18 11:16:16;;;;;;;484.00;446.38;;;;;;;;;;5050517;28;20029;-58
2023/09/18 11:18:41;;;;;;;438.45;402.73;;;;;;;;;;5051039;28;20020;-59
2023/09/18 11:21:06;;;;;;;;;;;;;;;;;;5021477;28;20088;-58
2023/09/18 11:23:36;;;;;;;339.75;308.98;;;;;;;;;;5031271;28;20402;-59
2023/09/18 11:26:04;;;;;;;390.38;359.90;;;;;;;;;;5031530;28;20091;-57
2023/09/18 11:28:31;;;;;;;430.92;390.05;;;;;;;;;;5040162;28;20032;-58
2023/09/18 11:31:00;;;;;;;415.30;379.85;;;;;;;;;;5022380;28;20123;-58
2023/09/18 11:33:37;;;;;;;336.95;308.77;;;;;;;;;;5031161;28;20496;-57
2023/09/18 11:36:03;;;;;;;;;;;;;;;;;;5022233;28;20041;-58
2023/09/18 11:38:28;;;;;;;396.35;365.80;;;;;;;;;;5035988;28;20283;-57
2023/09/18 11:40:53;;;;;;;;;;;;;;;;;;5044177;28;20389;-58
2023/09/18 11:43:23;;;;;;;352.45;324.77;;;;;;;;;;5032362;28;19909;-58
2023/09/18 11:45:50;;;;;;;369.70;338.67;;;;;;;;;;5027237;28;20492;-57
2023/09/18 11:48:15;;;;;;;429.45;393.40;;;;;;;;;;5031049;28;20068;-57
2023/09/18 11:50:41;;;;;;;;;;;;;;;;;;5023179;28;20472;-57
2023/09/18 11:53:06;;;;;;;471.20;432.17;;;;;;;;;;5028872;28;19916;-58
2023/09/18 11:55:32;;;;;;;371.75;341.85;;;;;;;;;;5040579;28;20393;-58
2023/09/18 11:58:01;;;;;;;;;;;;;;;;;;5031049;28;20022;-57
2023/09/18 12:00:28;;;;;;;341.75;311.95;;;;;;;;;;5029597;28;19917;-58
2023/09/18 12:02:55;;;;;;;457.35;411.65;;;;;;;;;;5018828;28;20025;-58
2023/09/18 12:05:20;;;;;;;462.20;416.83;;;;;;;;;;5022174;28;20068;-58
2023/09/18 12:07:45;;;;;;;;;;;;;;;;;;5013219;28;20029;-59
2023/09/18 12:10:11;;;;;;;256.20;236.70;;;;;;;;;;5016641;28;19932;-59
2023/09/18 12:12:37;;;;;;;377.35;347.15;;;;;;;;;;5016582;28;20060;-59
2023/09/18 12:15:03;;;;;;;;;;;;;;;;;;5017741;28;20449;-58
2023/09/18 12:17:28;;;;;;;434.42;389.77;;;;;;;;;;5039270;28;19966;-57
2023/09/18 12:19:53;;;;;;;;;;;;;;;;;;5033227;28;20429;-58
2023/09/18 12:22:28;;;;;;;441.33;400.30;;;;;;;;;;5015129;28;20331;-59
2023/09/18 12:24:53;;;;;;;435.58;400.73;;;;;;;;;;5028879;28;20112;-59
2023/09/18 12:27:18;;;;;;;;;;;;;;;;;;5030779;28;20096;-57
2023/09/18 12:29:44;;;;;;;432.73;394.92;;;;;;;;;;5028069;28;19911;-58
2023/09/18 12:32:09;;;;;;;;;;;;;;;;;;5034916;28;20072;-58
2023/09/18 12:34:35;;;;;;;361.27;329.42;;;;;;;;;;5020379;28;19909;-57
2023/09/18 12:37:01;;;;;;;363.08;335.77;;;;;;;;;;5016281;28;20168;-58
2023/09/18 12:39:26;;;;;;;;;;;;;;;;;;5030247;28;20437;-58
2023/09/18 12:41:51;;;;;;;411.27;371.20;;;;;;;;;;5019762;28;19956;-57
2023/09/18 12:44:16;;;;;;;;;;;;;;;;;;5032543;28;20033;-58
2023/09/18 12:46:42;;;;;;;389.50;357.03;;;;;;;;;;5036126;28;19978;-58
2023/09/18 12:49:07;;;;;;;;;;;;;;;;;;5022546;28;20463;-57
2023/09/18 12:51:32;;;;;;;383.40;351.10;;;;;;;;;;5024057;28;19988;-58
2023/09/18 12:54:06;;;;;;;333.63;304.80;;;;;;;;;;5047492;28;20028;-57
2023/09/18 12:56:31;;;;;;;356.10;325.05;;;;;;;;;;5049988;28;20432;-58
2023/09/18 12:58:56;;;;;;;;;;;;;;;;;;5035686;28;20034;-57
2023/09/18 13:01:23;;;;;;;392.10;358.92;;;;;;;;;;5037151;28;20366;-59
2023/09/18 13:03:48;;;;;;;;;;;;;;;;;;5021096;28;20036;-59
2023/09/18 13:06:17;;;;;;;470.27;426.10;;;;;;;;;;5018467;28;19905;-58
2023/09/18 13:08:42;;;;;;;398.20;360.42;;;;;;;;;;5011408;28;20033;-58
2023/09/18 13:11:08;;;;;;;;;;;;;;;;;;5012638;28;20030;-59
2023/09/18 13:13:34;;;;;;;476.30;433.23;;;;;;;;;;5035401;28;20295;-60
2023/09/18 13:15:59;;;;;;;;;;;;;;;;;;5015962;28;20034;-57
2023/09/18 13:18:25;;;;;;;482.50;439.63;;;;;;;;;;5020264;28;19956;-58
2023/09/18 13:20:50;;;;;;;340.08;314.15;;;;;;;;;;5021365;28;20399;-58
2023/09/18 13:23:15;;;;;;;;;;;;;;;;;;5028163;28;20079;-58
2023/09/18 13:25:45;;;;;;;477.33;436.27;;;;;;;;;;5029140;28;20406;-57
2023/09/18 13:28:11;;;;;;;439.70;396.60;;;;;;;;;;5015194;28;20057;-58
2023/09/18 13:30:38;;;;;;;;;;;;;;;;;;5013892;28;20473;-59
2023/09/18 13:33:04;;;;;;;485.13;442.05;;;;;;;;;;5017442;28;19909;-57
2023/09/18 13:35:29;;;;;;;;;;;;;;;;;;5023171;28;20108;-58
2023/09/18 13:37:55;;;;;;;288.57;263.73;;;;;;;;;;5031228;28;19913;-58
2023/09/18 13:40:22;;;;;;;382.95;346.65;;;;;;;;;;5030558;28;20013;-58
2023/09/18 13:42:48;;;;;;;474.58;434.10;;;;;;;;;;5023267;28;20026;-58
2023/09/18 13:45:16;;;;;;;463.00;421.17;;;;;;;;;;5014234;28;20084;-58
2023/09/18 13:47:41;;;;;;;430.67;383.48;;;;;;;;;;5018936;28;20021;-58
2023/09/18 13:50:06;;;;;;;;;;;;;;;;;;5013114;28;20018;-58
2023/09/18 13:52:32;;;;;;;439.67;404.83;;;;;;;;;;5022619;28;20630;-58
2023/09/18 13:54:57;;;;;;;416.38;379.15;;;;;;;;;;5024303;28;20597;-58
2023/09/18 13:57:23;;;;;;;;;;;;;;;;;;5016765;28;20033;-58
2023/09/18 13:59:49;;;;;;;357.23;325.92;;;;;;;;;;5027167;28;19951;-58
2023/09/18 14:02:14;;;;;;;;;;;;;;;;;;5031421;28;20010;-58
2023/09/18 14:04:39;;;;;;;447.40;409.52;;;;;;;;;;5025181;28;19917;-58